createdAt,value
2018-08-07T00:01:18.264Z,55.20
2018-08-07T00:03:46.792Z,55.00
2018-08-07T00:06:15.256Z,55.30
2018-08-07T00:08:43.771Z,55.60
2018-08-07T00:11:12.219Z,55.60
2018-08-07T00:13:40.732Z,55.60
2018-08-07T00:16:09.196Z,55.40
2018-08-07T00:18:37.651Z,55.70
2018-08-07T00:21:06.116Z,55.90
2018-08-07T00:23:34.615Z,56.00
2018-08-07T00:26:03.103Z,56.40
2018-08-07T00:28:31.596Z,56.30
2018-08-07T00:31:00.088Z,56.60
2018-08-07T00:33:28.600Z,56.10
2018-08-07T00:38:25.487Z,56.70
2018-08-07T00:40:53.986Z,57.00
2018-08-07T00:43:22.431Z,57.00
2018-08-07T00:48:19.016Z,57.50
2018-08-07T00:50:47.488Z,57.60
2018-08-07T00:53:15.963Z,58.00
2018-08-07T00:55:44.443Z,58.00
2018-08-07T00:58:12.929Z,58.00
2018-08-07T01:00:41.455Z,58.30
2018-08-07T01:03:09.951Z,58.30
2018-08-07T01:05:38.451Z,58.50
2018-08-07T01:08:06.952Z,58.60
2018-08-07T01:10:35.415Z,58.50
2018-08-07T01:13:03.899Z,58.70
2018-08-07T01:18:00.551Z,59.00
2018-08-07T01:22:57.151Z,58.90
2018-08-07T01:25:26.410Z,59.00
2018-08-07T01:27:55.211Z,59.00
2018-08-07T01:30:27.557Z,58.90
2018-08-07T01:32:56.604Z,59.10
2018-08-07T01:35:25.874Z,59.10
2018-08-07T01:37:54.340Z,59.40
2018-08-07T01:40:22.871Z,59.60
2018-08-07T01:42:51.327Z,59.80
2018-08-07T01:45:19.859Z,59.90
2018-08-07T01:47:48.346Z,60.00
2018-08-07T01:50:17.179Z,60.10
2018-08-07T01:52:45.670Z,60.20
2018-08-07T01:55:24.303Z,60.70
2018-08-07T01:57:52.939Z,60.80
2018-08-07T02:00:21.451Z,61.00
2018-08-07T02:02:50.412Z,60.90
2018-08-07T02:05:19.136Z,61.40
2018-08-07T02:07:47.735Z,61.60
2018-08-07T02:10:17.815Z,62.10
2018-08-07T02:12:46.312Z,62.80
2018-08-07T02:17:43.520Z,63.70
2018-08-07T02:20:13.708Z,64.50
2018-08-07T02:22:43.116Z,65.20
2018-08-07T02:25:16.178Z,66.00
2018-08-07T02:27:45.317Z,66.80
2018-08-07T02:30:15.044Z,67.20
2018-08-07T02:32:43.665Z,68.30
2018-08-07T02:35:13.494Z,68.20
2018-08-07T02:37:43.133Z,68.50
2018-08-07T02:40:12.719Z,69.00
2018-08-07T02:45:11.817Z,68.60
2018-08-07T02:47:40.949Z,67.40
2018-08-07T02:50:10.645Z,67.10
2018-08-07T02:55:09.272Z,67.20
2018-08-07T02:57:38.153Z,67.50
2018-08-07T03:00:08.564Z,67.90
2018-08-07T03:05:06.756Z,68.40
2018-08-07T03:07:35.389Z,68.50
2018-08-07T03:10:04.541Z,70.10
2018-08-07T03:15:01.220Z,69.90
2018-08-07T03:17:29.777Z,70.20
2018-08-07T03:22:26.464Z,71.10
2018-08-07T03:24:54.961Z,71.50
2018-08-07T03:27:23.520Z,72.20
2018-08-07T03:34:48.366Z,72.70
2018-08-07T03:37:16.857Z,73.00
2018-08-07T03:39:45.396Z,72.90
2018-08-07T03:44:42.086Z,73.00
2018-08-07T03:47:10.600Z,73.40
2018-08-07T03:49:39.135Z,73.20
2018-08-07T03:52:07.678Z,73.00
2018-08-07T03:54:36.162Z,73.50
2018-08-07T03:57:04.701Z,73.80
2018-08-07T03:59:33.188Z,74.00
2018-08-07T04:02:01.696Z,74.10
2018-08-07T04:04:30.182Z,74.60
2018-08-07T04:06:58.721Z,74.90
2018-08-07T04:09:27.229Z,75.40
2018-08-07T04:11:55.730Z,75.30
2018-08-07T04:14:24.288Z,75.60
2018-08-07T04:16:55.169Z,76.10
2018-08-07T04:19:25.525Z,76.90
2018-08-07T04:21:54.392Z,76.50
2018-08-07T04:24:22.922Z,76.60
2018-08-07T04:26:51.657Z,76.60
2018-08-07T04:29:20.269Z,77.10
2018-08-07T04:31:48.773Z,76.80
2018-08-07T04:34:17.449Z,78.10
2018-08-07T04:36:45.996Z,77.90
2018-08-07T04:39:14.596Z,77.90
2018-08-07T04:41:43.269Z,78.50
2018-08-07T04:44:11.823Z,78.20
2018-08-07T04:46:40.689Z,77.90
2018-08-07T04:49:09.213Z,78.00
2018-08-07T04:51:37.879Z,78.30
2018-08-07T04:54:06.700Z,78.60
2018-08-07T04:59:03.776Z,79.50
2018-08-07T05:04:00.475Z,79.40
2018-08-07T05:06:29.021Z,78.80
2018-08-07T05:08:57.511Z,79.30
2018-08-07T05:11:25.997Z,79.10
2018-08-07T05:13:54.514Z,79.60
2018-08-07T05:16:23.013Z,80.40
2018-08-07T05:18:51.594Z,79.20
2018-08-07T05:21:20.205Z,79.60
2018-08-07T05:23:48.758Z,79.80
2018-08-07T05:26:17.313Z,79.90
2018-08-07T05:28:45.893Z,80.90
2018-08-07T05:31:14.338Z,80.90
2018-08-07T05:36:11.045Z,80.90
2018-08-07T05:38:39.757Z,81.00
2018-08-07T05:41:08.319Z,81.20
2018-08-07T05:43:36.809Z,81.00
2018-08-07T05:46:05.425Z,82.70
2018-08-07T05:53:30.377Z,83.40
2018-08-07T05:55:58.988Z,82.90
2018-08-07T05:58:27.504Z,81.10
2018-08-07T06:00:56.026Z,81.70
2018-08-07T06:05:52.744Z,79.80
2018-08-07T06:08:21.360Z,79.40
2018-08-07T06:10:49.976Z,80.00
2018-08-07T06:13:18.525Z,79.20
2018-08-07T06:18:15.197Z,79.80
2018-08-07T06:20:43.708Z,79.70
2018-08-07T06:23:12.229Z,79.30
2018-08-07T06:25:40.804Z,79.10
2018-08-07T06:28:09.298Z,79.50
2018-08-07T06:30:37.849Z,78.60
2018-08-07T06:33:06.394Z,78.90
2018-08-07T06:35:34.968Z,78.90
2018-08-07T06:38:03.506Z,79.20
2018-08-07T06:40:32.037Z,78.40
2018-08-07T06:43:00.546Z,77.90
2018-08-07T06:45:29.108Z,77.80
2018-08-07T06:47:57.620Z,78.10
2018-08-07T06:50:26.199Z,78.60
2018-08-07T06:52:54.681Z,78.00
2018-08-07T06:55:23.192Z,79.00
2018-08-07T06:57:51.757Z,78.60
2018-08-07T07:00:25.605Z,78.70
2018-08-07T07:02:54.846Z,79.50
2018-08-07T07:05:23.416Z,79.60
2018-08-07T07:07:52.101Z,78.70
2018-08-07T07:10:20.572Z,79.90
2018-08-07T07:15:17.847Z,78.80
2018-08-07T07:17:47.357Z,78.50
2018-08-07T07:20:16.872Z,78.60
2018-08-07T07:22:46.547Z,77.50
2018-08-07T07:25:15.293Z,77.40
2018-08-07T07:27:44.021Z,77.60
2018-08-07T07:30:15.715Z,78.40
2018-08-07T07:32:45.697Z,78.40
2018-08-07T07:37:43.584Z,78.10
2018-08-07T07:40:12.293Z,78.10
2018-08-07T07:42:40.841Z,77.20
2018-08-07T07:45:11.853Z,77.30
2018-08-07T07:47:41.001Z,76.00
2018-08-07T07:50:18.529Z,76.20
2018-08-07T07:52:47.130Z,76.40
2018-08-07T07:55:16.577Z,76.20
2018-08-07T07:57:45.149Z,75.40
2018-08-07T08:00:16.432Z,75.60
2018-08-07T08:02:44.985Z,76.30
2018-08-07T08:05:13.558Z,74.70
2018-08-07T08:07:42.006Z,74.80
2018-08-07T08:10:10.872Z,74.80
2018-08-07T08:12:40.006Z,75.10
2018-08-07T08:15:10.982Z,74.60
2018-08-07T08:17:39.497Z,74.90
2018-08-07T08:20:10.193Z,73.80
2018-08-07T08:22:39.105Z,75.50
2018-08-07T08:27:37.441Z,73.70
2018-08-07T08:30:11.613Z,74.00
2018-08-07T08:32:40.201Z,73.60
2018-08-07T08:37:39.544Z,73.10
2018-08-07T08:40:10.102Z,73.20
2018-08-07T08:42:39.553Z,74.50
2018-08-07T08:45:12.955Z,74.20
2018-08-07T08:47:42.393Z,73.20
2018-08-07T08:50:13.217Z,72.80
2018-08-07T08:52:42.485Z,72.70
2018-08-07T08:55:11.493Z,72.00
2018-08-07T08:57:40.912Z,71.30
2018-08-07T09:00:18.646Z,71.70
2018-08-07T09:02:47.721Z,70.70
2018-08-07T09:05:17.137Z,70.90
2018-08-07T09:07:46.013Z,71.60
2018-08-07T09:10:16.864Z,71.00
2018-08-07T09:12:45.399Z,69.70
2018-08-07T09:15:14.204Z,67.90
2018-08-07T09:17:42.906Z,68.10
2018-08-07T09:20:15.005Z,67.80
2018-08-07T09:22:44.082Z,67.80
2018-08-07T09:25:12.794Z,66.90
2018-08-07T09:27:42.244Z,69.00
2018-08-07T09:30:14.877Z,67.10
2018-08-07T09:32:43.805Z,67.20
2018-08-07T09:35:13.249Z,65.70
2018-08-07T09:37:42.205Z,67.10
2018-08-07T09:40:13.409Z,67.40
2018-08-07T09:42:43.297Z,65.00
2018-08-07T09:45:15.601Z,63.70
2018-08-07T09:47:44.986Z,63.40
2018-08-07T09:50:14.900Z,63.50
2018-08-07T09:55:12.394Z,62.00
2018-08-07T09:57:40.972Z,60.20
2018-08-07T10:00:17.593Z,60.00
2018-08-07T10:02:49.988Z,59.10
2018-08-07T10:05:19.703Z,58.60
2018-08-07T10:07:48.697Z,58.50
2018-08-07T10:10:17.260Z,57.70
2018-08-07T10:12:46.293Z,56.90
2018-08-07T10:15:15.481Z,57.10
2018-08-07T10:20:12.873Z,55.30
2018-08-07T10:22:41.861Z,54.40
2018-08-07T10:25:12.448Z,53.90
2018-08-07T10:27:43.148Z,53.40
2018-08-07T10:30:13.648Z,53.50
2018-08-07T10:32:42.664Z,51.20
2018-08-07T10:35:12.252Z,51.00
2018-08-07T10:40:12.808Z,50.90
2018-08-07T10:42:41.581Z,49.90
2018-08-07T10:45:12.093Z,48.20
2018-08-07T10:47:41.040Z,48.00
2018-08-07T10:50:25.161Z,47.70
2018-08-07T10:52:53.857Z,46.30
2018-08-07T10:55:23.185Z,47.20
2018-08-07T10:57:54.228Z,46.40
2018-08-07T11:00:29.477Z,44.90
2018-08-07T11:02:58.841Z,44.60
2018-08-07T11:05:27.945Z,43.70
2018-08-07T11:10:25.161Z,42.30
2018-08-07T11:12:54.259Z,42.70
2018-08-07T11:15:33.645Z,41.50
2018-08-07T11:18:02.976Z,41.10
2018-08-07T11:20:31.940Z,40.60
2018-08-07T11:25:30.748Z,37.10
2018-08-07T11:30:28.767Z,35.90
2018-08-07T11:32:58.463Z,36.00
2018-08-07T11:35:27.359Z,35.40
2018-08-07T11:37:57.420Z,35.20
2018-08-07T11:40:26.580Z,35.00
2018-08-07T11:42:55.961Z,34.40
2018-08-07T11:47:54.387Z,35.20
2018-08-07T11:50:26.548Z,35.40
2018-08-07T11:52:55.217Z,35.80
2018-08-07T11:55:24.529Z,36.20
2018-08-07T11:57:54.033Z,35.90
2018-08-07T12:00:44.322Z,35.40
2018-08-07T12:03:12.864Z,34.90
2018-08-07T12:05:41.437Z,34.60
2018-08-07T12:08:10.135Z,33.70
2018-08-07T12:10:38.639Z,33.50
2018-08-07T12:13:07.271Z,33.30
2018-08-07T12:15:35.883Z,33.40
2018-08-07T12:18:04.950Z,33.60
2018-08-07T12:20:33.605Z,31.70
2018-08-07T12:23:02.208Z,32.10
2018-08-07T12:25:30.758Z,32.70
2018-08-07T12:27:59.285Z,32.30
2018-08-07T12:30:29.272Z,31.60
2018-08-07T12:35:26.369Z,31.80
2018-08-07T12:37:54.932Z,32.70
2018-08-07T12:40:26.462Z,34.30
2018-08-07T12:42:58.803Z,35.20
2018-08-07T12:45:27.368Z,36.50
2018-08-07T12:47:56.213Z,37.10
2018-08-07T12:50:24.814Z,36.70
2018-08-07T12:55:22.626Z,38.30
2018-08-07T12:57:51.704Z,38.50
2018-08-07T13:02:51.315Z,39.70
2018-08-07T13:07:48.065Z,40.60
2018-08-07T13:10:18.243Z,40.40
2018-08-07T13:12:47.433Z,40.00
2018-08-07T13:15:17.329Z,40.00
2018-08-07T13:17:46.441Z,40.00
2018-08-07T13:20:14.997Z,40.60
2018-08-07T13:22:44.308Z,40.20
2018-08-07T13:25:15.194Z,40.40
2018-08-07T13:27:43.761Z,41.90
2018-08-07T13:30:16.341Z,41.80
2018-08-07T13:32:44.893Z,42.00
2018-08-07T13:35:13.516Z,42.30
2018-08-07T13:37:43.712Z,42.40
2018-08-07T13:40:14.273Z,42.30
2018-08-07T13:42:42.844Z,42.40
2018-08-07T13:45:16.969Z,42.50
2018-08-07T13:47:45.612Z,42.90
2018-08-07T13:50:17.633Z,43.00
2018-08-07T13:52:46.801Z,42.90
2018-08-07T13:57:44.748Z,43.20
2018-08-07T14:00:22.318Z,43.30
2018-08-07T14:02:51.507Z,43.30
2018-08-07T14:05:20.913Z,43.40
2018-08-07T14:07:50.597Z,42.80
2018-08-07T14:10:19.892Z,43.00
2018-08-07T14:12:48.489Z,43.20
2018-08-07T14:15:17.985Z,43.40
2018-08-07T14:17:46.801Z,43.80
2018-08-07T14:20:16.279Z,44.30
2018-08-07T14:22:45.108Z,44.10
2018-08-07T14:25:18.312Z,44.10
2018-08-07T14:27:46.869Z,44.40
2018-08-07T14:30:18.309Z,44.40
2018-08-07T14:32:47.036Z,44.00
2018-08-07T14:35:15.590Z,44.40
2018-08-07T14:37:45.185Z,44.60
2018-08-07T14:45:13.836Z,45.30
2018-08-07T14:47:43.121Z,44.60
2018-08-07T14:50:16.849Z,44.10
2018-08-07T14:52:45.357Z,44.70
2018-08-07T14:55:13.940Z,44.10
2018-08-07T14:57:42.805Z,43.70
2018-08-07T15:00:15.338Z,44.20
2018-08-07T15:02:44.989Z,44.50
2018-08-07T15:05:13.528Z,44.50
2018-08-07T15:07:42.069Z,44.60
2018-08-07T15:10:13.726Z,44.00
2018-08-07T15:12:42.385Z,44.30
2018-08-07T15:17:40.457Z,44.50
2018-08-07T15:20:10.800Z,43.80
2018-08-07T15:22:39.513Z,42.80
2018-08-07T15:25:11.306Z,43.00
2018-08-07T15:27:39.858Z,43.20
2018-08-07T15:30:13.359Z,42.50
2018-08-07T15:32:42.141Z,42.00
2018-08-07T15:35:10.746Z,42.10
2018-08-07T15:37:39.264Z,41.30
2018-08-07T15:40:08.809Z,41.00
2018-08-07T15:42:37.464Z,41.10
2018-08-07T15:45:07.201Z,40.80
2018-08-07T15:47:35.769Z,40.90
2018-08-07T15:52:33.816Z,40.80
2018-08-07T15:55:02.349Z,40.60
2018-08-07T16:02:27.260Z,39.20
2018-08-07T16:04:55.762Z,38.90
2018-08-07T16:07:24.348Z,38.80
2018-08-07T16:12:21.001Z,38.70
2018-08-07T16:17:17.708Z,38.70
2018-08-07T16:19:46.224Z,38.80
2018-08-07T16:22:14.829Z,39.10
2018-08-07T16:24:43.281Z,39.00
2018-08-07T16:27:11.832Z,39.30
2018-08-07T16:29:40.386Z,39.50
2018-08-07T16:32:08.905Z,39.30
2018-08-07T16:34:37.473Z,39.10
2018-08-07T16:37:06.245Z,39.30
2018-08-07T16:39:34.787Z,39.30
2018-08-07T16:42:03.343Z,39.60
2018-08-07T16:44:31.932Z,39.70
2018-08-07T16:47:00.428Z,39.30
2018-08-07T16:49:28.989Z,39.70
2018-08-07T16:51:57.540Z,40.40
2018-08-07T16:54:26.075Z,39.50
2018-08-07T16:56:54.597Z,39.60
2018-08-07T16:59:23.172Z,39.70
2018-08-07T17:01:51.669Z,39.40
2018-08-07T17:04:20.178Z,39.60
2018-08-07T17:06:48.693Z,39.90
2018-08-07T17:09:17.205Z,39.50
2018-08-07T17:11:45.712Z,39.20
2018-08-07T17:14:14.240Z,39.30
2018-08-07T17:16:42.820Z,39.60
2018-08-07T17:19:11.336Z,39.80
2018-08-07T17:21:39.881Z,40.70
2018-08-07T17:24:08.429Z,41.40
2018-08-07T17:26:36.945Z,41.30
2018-08-07T17:29:05.489Z,40.90
2018-08-07T17:31:34.033Z,41.00
2018-08-07T17:34:02.545Z,41.60
2018-08-07T17:36:31.085Z,41.90
2018-08-07T17:38:59.672Z,42.40
2018-08-07T17:41:28.264Z,42.40
2018-08-07T17:43:56.762Z,42.90
2018-08-07T17:48:53.440Z,44.00
2018-08-07T17:51:21.930Z,43.60
2018-08-07T17:53:50.460Z,43.90
2018-08-07T17:56:18.968Z,44.20
2018-08-07T18:03:43.857Z,44.70
2018-08-07T18:06:12.472Z,44.90
2018-08-07T18:08:41.041Z,45.30
2018-08-07T18:11:09.537Z,45.40
2018-08-07T18:13:38.103Z,45.70
2018-08-07T18:16:06.889Z,46.00
2018-08-07T18:18:35.463Z,46.20
2018-08-07T18:21:03.997Z,46.50
2018-08-07T18:23:32.497Z,46.80
2018-08-07T18:26:01.057Z,47.00
2018-08-07T18:28:29.595Z,47.30
2018-08-07T18:30:58.121Z,47.60
2018-08-07T18:33:26.619Z,48.30
2018-08-07T18:35:55.145Z,48.50
2018-08-07T18:38:23.656Z,48.00
2018-08-07T18:40:52.157Z,48.10
2018-08-07T18:45:48.897Z,48.40
2018-08-07T18:48:17.393Z,48.70
2018-08-07T18:53:14.105Z,48.90
2018-08-07T18:55:42.620Z,49.10
2018-08-07T18:58:11.187Z,49.20
2018-08-07T19:00:39.705Z,49.50
2018-08-07T19:05:36.433Z,49.60
2018-08-07T19:08:04.932Z,49.80
2018-08-07T19:10:33.437Z,50.40
2018-08-07T19:13:01.948Z,51.00
2018-08-07T19:15:30.489Z,51.20
2018-08-07T19:20:27.224Z,51.60
2018-08-07T19:22:55.729Z,51.90
2018-08-07T19:27:52.455Z,51.70
2018-08-07T19:30:22.837Z,51.80
2018-08-07T19:32:51.320Z,51.70
2018-08-07T19:35:19.897Z,51.90
2018-08-07T19:42:46.960Z,52.30
2018-08-07T19:47:44.857Z,53.00
2018-08-07T19:50:14.884Z,52.60
2018-08-07T19:52:43.433Z,52.70
2018-08-07T19:55:15.197Z,53.00
2018-08-07T19:57:43.801Z,53.00
2018-08-07T20:02:42.728Z,53.20
2018-08-07T20:05:11.266Z,53.40
2018-08-07T20:07:40.092Z,53.60
2018-08-07T20:10:10.121Z,53.70
2018-08-07T20:12:39.109Z,54.00
2018-08-07T20:15:10.856Z,54.00
2018-08-07T20:20:08.744Z,54.60
2018-08-07T20:22:37.308Z,54.80
2018-08-07T20:25:06.859Z,55.30
2018-08-07T20:27:35.409Z,55.50
2018-08-07T20:32:33.287Z,55.80
2018-08-07T20:35:01.853Z,55.70
2018-08-07T20:37:30.469Z,55.90
2018-08-07T20:39:59.205Z,55.40
2018-08-07T20:42:27.648Z,56.20
2018-08-07T20:44:56.256Z,56.50
2018-08-07T20:47:24.821Z,56.40
2018-08-07T20:49:53.369Z,56.40
2018-08-07T20:52:21.961Z,56.70
2018-08-07T20:54:50.437Z,56.80
2018-08-07T20:57:18.980Z,56.50
2018-08-07T20:59:47.456Z,56.20
2018-08-07T21:02:16.042Z,56.30
2018-08-07T21:04:44.553Z,56.80
2018-08-07T21:07:13.125Z,57.20
2018-08-07T21:09:41.693Z,57.40
2018-08-07T21:12:10.301Z,57.20
2018-08-07T21:14:38.879Z,57.60
2018-08-07T21:17:07.585Z,57.60
2018-08-07T21:19:36.133Z,57.80
2018-08-07T21:22:04.841Z,57.70
2018-08-07T21:24:33.389Z,57.80
2018-08-07T21:27:01.893Z,57.80
2018-08-07T21:29:30.421Z,58.30
2018-08-07T21:31:58.933Z,58.50
2018-08-07T21:34:27.460Z,58.90
2018-08-07T21:36:56.117Z,59.30
2018-08-07T21:39:24.644Z,59.30
2018-08-07T21:41:53.165Z,59.50
2018-08-07T21:44:21.680Z,59.50
2018-08-07T21:46:50.193Z,60.20
2018-08-07T21:49:18.805Z,59.90
2018-08-07T21:51:47.352Z,59.70
2018-08-07T21:54:15.848Z,59.90
2018-08-07T21:56:44.372Z,60.10
2018-08-07T21:59:12.848Z,60.20
2018-08-07T22:01:41.400Z,60.30
2018-08-07T22:04:09.918Z,60.30
2018-08-07T22:06:38.606Z,60.80
2018-08-07T22:09:08.394Z,60.60
2018-08-07T22:11:36.957Z,60.60
2018-08-07T22:14:05.637Z,60.80
2018-08-07T22:16:34.392Z,61.30
2018-08-07T22:19:02.989Z,61.90
2018-08-07T22:21:31.520Z,62.70
2018-08-07T22:28:56.372Z,63.80
2018-08-07T22:31:24.916Z,63.50
2018-08-07T22:33:53.477Z,63.90
2018-08-07T22:36:22.013Z,64.00
2018-08-07T22:38:50.532Z,64.20
2018-08-07T22:41:19.078Z,64.40
2018-08-07T22:43:47.556Z,64.70
2018-08-07T22:48:44.273Z,65.00
2018-08-07T22:51:12.883Z,65.00
2018-08-07T22:53:41.432Z,65.10
2018-08-07T22:56:10.021Z,64.90
2018-08-07T22:58:38.521Z,65.00
2018-08-07T23:01:07.856Z,65.70
2018-08-07T23:06:04.609Z,66.30
2018-08-07T23:11:01.280Z,66.90
2018-08-07T23:13:29.817Z,67.20
2018-08-07T23:15:58.381Z,67.30
2018-08-07T23:18:26.885Z,67.80
2018-08-07T23:20:55.477Z,68.00
2018-08-07T23:23:23.969Z,68.70
2018-08-07T23:28:20.657Z,69.50
2018-08-07T23:30:49.196Z,69.40
2018-08-07T23:33:17.701Z,69.40
2018-08-07T23:38:14.417Z,70.50
2018-08-07T23:40:42.928Z,70.60
2018-08-07T23:43:11.489Z,71.30
2018-08-07T23:45:40.140Z,72.00
2018-08-07T23:48:08.673Z,72.40
2018-08-07T23:50:37.177Z,72.70
2018-08-07T23:53:05.702Z,73.00
2018-08-07T23:55:34.229Z,73.40
2018-08-07T23:58:02.725Z,73.20
